Aviation Digital Data Service (ADDS)

Output produced by METARs form (2328 UTC 29 August 2016)
found at http://aviationweather.gov/adds/metars/
 
KRWI 292326Z 3000/3024 05004KT P6SM FEW050 SCT120 
     TEMPO 3010/3014 BKN010 
     FM301600 03008KT P6SM SCT040 SCT150